sensor_id;sensor_type;location;lat;lon;timestamp;P1;durP1;ratioP1;P2;durP2;ratioP2
4011;SDS011;2020;48.682;9.024;2023-01-01T00:01:54;16.70;;;14.10;;
4011;SDS011;2020;48.682;9.024;2023-01-01T00:04:19;15.80;;;13.83;;
4011;SDS011;2020;48.682;9.024;2023-01-01T00:06:45;18.70;;;11.90;;
4011;SDS011;2020;48.682;9.024;2023-01-01T00:09:10;16.03;;;12.57;;
4011;SDS011;2020;48.682;9.024;2023-01-01T00:11:54;12.77;;;11.47;;
4011;SDS011;2020;48.682;9.024;2023-01-01T00:14:19;13.27;;;10.90;;
4011;SDS011;2020;48.682;9.024;2023-01-01T00:16:44;15.37;;;13.67;;
4011;SDS011;2020;48.682;9.024;2023-01-01T00:19:10;17.47;;;11.53;;
4011;SDS011;2020;48.682;9.024;2023-01-01T00:21:35;12.83;;;10.97;;
4011;SDS011;2020;48.682;9.024;2023-01-01T00:24:00;11.90;;;10.70;;
4011;SDS011;2020;48.682;9.024;2023-01-01T00:26:26;11.67;;;10.57;;
4011;SDS011;2020;48.682;9.024;2023-01-01T00:28:51;12.93;;;9.83;;
4011;SDS011;2020;48.682;9.024;2023-01-01T00:31:18;10.53;;;9.43;;
4011;SDS011;2020;48.682;9.024;2023-01-01T00:33:45;13.70;;;9.97;;
4011;SDS011;2020;48.682;9.024;2023-01-01T00:36:14;9.60;;;8.80;;
4011;SDS011;2020;48.682;9.024;2023-01-01T00:38:40;11.13;;;10.03;;
4011;SDS011;2020;48.682;9.024;2023-01-01T00:41:07;10.23;;;9.00;;
4011;SDS011;2020;48.682;9.024;2023-01-01T00:43:33;10.83;;;9.83;;
4011;SDS011;2020;48.682;9.024;2023-01-01T00:45:58;9.73;;;8.93;;
4011;SDS011;2020;48.682;9.024;2023-01-01T00:48:24;9.50;;;8.13;;
4011;SDS011;2020;48.682;9.024;2023-01-01T00:50:49;9.37;;;8.47;;
4011;SDS011;2020;48.682;9.024;2023-01-01T00:53:16;11.17;;;10.10;;
4011;SDS011;2020;48.682;9.024;2023-01-01T00:55:42;12.10;;;8.77;;
4011;SDS011;2020;48.682;9.024;2023-01-01T00:58:08;12.60;;;9.57;;
4011;SDS011;2020;48.682;9.024;2023-01-01T01:00:34;10.93;;;9.37;;
4011;SDS011;2020;48.682;9.024;2023-01-01T01:02:59;10.43;;;9.43;;
4011;SDS011;2020;48.682;9.024;2023-01-01T01:05:25;9.60;;;8.37;;
4011;SDS011;2020;48.682;9.024;2023-01-01T01:07:50;8.80;;;7.90;;
4011;SDS011;2020;48.682;9.024;2023-01-01T01:10:15;10.60;;;8.57;;
4011;SDS011;2020;48.682;9.024;2023-01-01T01:12:41;10.37;;;9.00;;
4011;SDS011;2020;48.682;9.024;2023-01-01T01:15:06;9.37;;;8.50;;
4011;SDS011;2020;48.682;9.024;2023-01-01T01:17:34;10.30;;;9.30;;
4011;SDS011;2020;48.682;9.024;2023-01-01T01:20:00;8.77;;;7.80;;
4011;SDS011;2020;48.682;9.024;2023-01-01T01:22:26;9.87;;;9.07;;
4011;SDS011;2020;48.682;9.024;2023-01-01T01:24:51;11.87;;;9.17;;
4011;SDS011;2020;48.682;9.024;2023-01-01T01:27:16;9.40;;;8.50;;
4011;SDS011;2020;48.682;9.024;2023-01-01T01:29:41;10.83;;;9.73;;
4011;SDS011;2020;48.682;9.024;2023-01-01T01:32:07;11.27;;;10.10;;
4011;SDS011;2020;48.682;9.024;2023-01-01T01:34:34;9.53;;;8.63;;
4011;SDS011;2020;48.682;9.024;2023-01-01T01:36:59;11.97;;;10.70;;
4011;SDS011;2020;48.682;9.024;2023-01-01T01:39:25;11.03;;;9.10;;
4011;SDS011;2020;48.682;9.024;2023-01-01T01:41:50;9.63;;;8.47;;
4011;SDS011;2020;48.682;9.024;2023-01-01T01:47:25;15.23;;;9.40;;
4011;SDS011;2020;48.682;9.024;2023-01-01T01:50:10;10.43;;;9.40;;
4011;SDS011;2020;48.682;9.024;2023-01-01T01:52:55;16.93;;;13.33;;
4011;SDS011;2020;48.682;9.024;2023-01-01T01:55:27;12.43;;;11.03;;
4011;SDS011;2020;48.682;9.024;2023-01-01T01:57:55;14.63;;;10.57;;
4011;SDS011;2020;48.682;9.024;2023-01-01T02:00:20;13.80;;;11.93;;
4011;SDS011;2020;48.682;9.024;2023-01-01T02:05:20;13.30;;;9.40;;
4011;SDS011;2020;48.682;9.024;2023-01-01T02:07:47;13.23;;;10.43;;
4011;SDS011;2020;48.682;9.024;2023-01-01T02:10:13;10.07;;;9.03;;
4011;SDS011;2020;48.682;9.024;2023-01-01T02:12:38;13.60;;;11.07;;
4011;SDS011;2020;48.682;9.024;2023-01-01T02:15:04;10.63;;;9.30;;
4011;SDS011;2020;48.682;9.024;2023-01-01T02:17:32;10.40;;;8.97;;
4011;SDS011;2020;48.682;9.024;2023-01-01T02:20:14;10.77;;;9.00;;
4011;SDS011;2020;48.682;9.024;2023-01-01T02:23:08;7.47;;;6.70;;
4011;SDS011;2020;48.682;9.024;2023-01-01T02:29:04;8.37;;;7.53;;
4011;SDS011;2020;48.682;9.024;2023-01-01T02:31:43;8.67;;;7.80;;
4011;SDS011;2020;48.682;9.024;2023-01-01T02:34:13;7.03;;;6.40;;
4011;SDS011;2020;48.682;9.024;2023-01-01T02:36:44;9.70;;;7.50;;
4011;SDS011;2020;48.682;9.024;2023-01-01T02:39:14;7.83;;;7.10;;
4011;SDS011;2020;48.682;9.024;2023-01-01T02:41:43;6.77;;;6.20;;
4011;SDS011;2020;48.682;9.024;2023-01-01T02:44:12;6.10;;;5.50;;
4011;SDS011;2020;48.682;9.024;2023-01-01T02:46:37;5.80;;;5.40;;
4011;SDS011;2020;48.682;9.024;2023-01-01T02:49:03;6.83;;;6.10;;
4011;SDS011;2020;48.682;9.024;2023-01-01T02:56:42;7.33;;;5.50;;
4011;SDS011;2020;48.682;9.024;2023-01-01T02:59:14;5.97;;;5.47;;
4011;SDS011;2020;48.682;9.024;2023-01-01T03:04:40;7.73;;;5.10;;
4011;SDS011;2020;48.682;9.024;2023-01-01T03:07:26;5.00;;;4.47;;
4011;SDS011;2020;48.682;9.024;2023-01-01T03:10:06;4.50;;;4.30;;
4011;SDS011;2020;48.682;9.024;2023-01-01T03:12:42;5.70;;;4.90;;
4011;SDS011;2020;48.682;9.024;2023-01-01T03:15:30;4.80;;;4.40;;
4011;SDS011;2020;48.682;9.024;2023-01-01T03:18:11;5.53;;;5.07;;
4011;SDS011;2020;48.682;9.024;2023-01-01T03:20:43;5.73;;;5.30;;
4011;SDS011;2020;48.682;9.024;2023-01-01T03:23:17;4.73;;;4.33;;
4011;SDS011;2020;48.682;9.024;2023-01-01T03:25:48;5.17;;;4.63;;
4011;SDS011;2020;48.682;9.024;2023-01-01T03:28:16;5.10;;;4.70;;
4011;SDS011;2020;48.682;9.024;2023-01-01T03:30:46;4.30;;;4.00;;
4011;SDS011;2020;48.682;9.024;2023-01-01T03:33:20;4.10;;;3.90;;
4011;SDS011;2020;48.682;9.024;2023-01-01T03:38:30;3.77;;;3.57;;
4011;SDS011;2020;48.682;9.024;2023-01-01T03:41:05;3.83;;;3.63;;
4011;SDS011;2020;48.682;9.024;2023-01-01T03:43:48;5.57;;;4.97;;
4011;SDS011;2020;48.682;9.024;2023-01-01T03:46:19;4.93;;;4.40;;
4011;SDS011;2020;48.682;9.024;2023-01-01T03:48:50;4.40;;;4.20;;
4011;SDS011;2020;48.682;9.024;2023-01-01T03:51:26;3.50;;;3.30;;
4011;SDS011;2020;48.682;9.024;2023-01-01T03:54:16;3.70;;;3.57;;
4011;SDS011;2020;48.682;9.024;2023-01-01T04:02:55;4.00;;;3.70;;
4011;SDS011;2020;48.682;9.024;2023-01-01T04:05:18;4.00;;;3.80;;
4011;SDS011;2020;48.682;9.024;2023-01-01T04:07:45;3.93;;;3.70;;
4011;SDS011;2020;48.682;9.024;2023-01-01T04:10:11;4.43;;;4.13;;
4011;SDS011;2020;48.682;9.024;2023-01-01T04:12:43;4.20;;;3.90;;
4011;SDS011;2020;48.682;9.024;2023-01-01T04:15:17;6.67;;;5.33;;
4011;SDS011;2020;48.682;9.024;2023-01-01T04:17:44;4.30;;;3.97;;
4011;SDS011;2020;48.682;9.024;2023-01-01T04:20:10;3.77;;;3.57;;
4011;SDS011;2020;48.682;9.024;2023-01-01T04:22:36;3.90;;;3.57;;
4011;SDS011;2020;48.682;9.024;2023-01-01T04:25:02;4.10;;;3.80;;
4011;SDS011;2020;48.682;9.024;2023-01-01T04:27:28;4.77;;;4.57;;
4011;SDS011;2020;48.682;9.024;2023-01-01T04:29:53;3.67;;;3.47;;
4011;SDS011;2020;48.682;9.024;2023-01-01T04:32:18;4.07;;;3.87;;
4011;SDS011;2020;48.682;9.024;2023-01-01T04:34:43;4.30;;;4.00;;
4011;SDS011;2020;48.682;9.024;2023-01-01T04:37:09;4.40;;;4.10;;
4011;SDS011;2020;48.682;9.024;2023-01-01T04:39:34;4.40;;;4.00;;
4011;SDS011;2020;48.682;9.024;2023-01-01T04:41:59;4.70;;;4.30;;
4011;SDS011;2020;48.682;9.024;2023-01-01T04:44:25;4.53;;;4.20;;
4011;SDS011;2020;48.682;9.024;2023-01-01T04:46:50;4.03;;;3.70;;
4011;SDS011;2020;48.682;9.024;2023-01-01T04:49:15;4.10;;;3.70;;
4011;SDS011;2020;48.682;9.024;2023-01-01T04:51:40;4.97;;;4.67;;
4011;SDS011;2020;48.682;9.024;2023-01-01T04:54:06;5.73;;;4.23;;
4011;SDS011;2020;48.682;9.024;2023-01-01T04:56:31;3.80;;;3.47;;
4011;SDS011;2020;48.682;9.024;2023-01-01T04:58:56;3.70;;;3.50;;
4011;SDS011;2020;48.682;9.024;2023-01-01T05:01:23;3.33;;;3.03;;
4011;SDS011;2020;48.682;9.024;2023-01-01T05:03:50;3.17;;;3.07;;
4011;SDS011;2020;48.682;9.024;2023-01-01T05:06:16;4.13;;;3.70;;
4011;SDS011;2020;48.682;9.024;2023-01-01T05:08:43;4.13;;;3.83;;
4011;SDS011;2020;48.682;9.024;2023-01-01T05:11:11;3.50;;;3.30;;
4011;SDS011;2020;48.682;9.024;2023-01-01T05:13:38;3.33;;;3.23;;
4011;SDS011;2020;48.682;9.024;2023-01-01T05:16:07;4.13;;;3.63;;
4011;SDS011;2020;48.682;9.024;2023-01-01T05:18:34;4.27;;;3.87;;
4011;SDS011;2020;48.682;9.024;2023-01-01T05:21:01;3.63;;;3.43;;
4011;SDS011;2020;48.682;9.024;2023-01-01T05:23:28;4.00;;;3.43;;
4011;SDS011;2020;48.682;9.024;2023-01-01T05:25:53;3.50;;;3.30;;
4011;SDS011;2020;48.682;9.024;2023-01-01T05:28:19;5.70;;;4.37;;
4011;SDS011;2020;48.682;9.024;2023-01-01T05:30:44;4.00;;;3.80;;
4011;SDS011;2020;48.682;9.024;2023-01-01T05:33:09;4.67;;;3.80;;
4011;SDS011;2020;48.682;9.024;2023-01-01T05:35:35;3.90;;;3.57;;
4011;SDS011;2020;48.682;9.024;2023-01-01T05:38:00;3.17;;;2.97;;
4011;SDS011;2020;48.682;9.024;2023-01-01T05:40:25;4.57;;;3.53;;
4011;SDS011;2020;48.682;9.024;2023-01-01T05:42:50;3.50;;;3.30;;
4011;SDS011;2020;48.682;9.024;2023-01-01T05:45:16;4.00;;;3.50;;
4011;SDS011;2020;48.682;9.024;2023-01-01T05:47:41;4.00;;;3.60;;
4011;SDS011;2020;48.682;9.024;2023-01-01T05:50:06;4.20;;;3.90;;
4011;SDS011;2020;48.682;9.024;2023-01-01T05:52:32;3.37;;;3.10;;
4011;SDS011;2020;48.682;9.024;2023-01-01T05:54:57;3.30;;;3.10;;
4011;SDS011;2020;48.682;9.024;2023-01-01T05:57:25;3.93;;;3.20;;
4011;SDS011;2020;48.682;9.024;2023-01-01T05:59:51;3.43;;;3.13;;
4011;SDS011;2020;48.682;9.024;2023-01-01T06:02:16;3.50;;;3.30;;
4011;SDS011;2020;48.682;9.024;2023-01-01T06:04:42;5.03;;;4.73;;
4011;SDS011;2020;48.682;9.024;2023-01-01T06:07:07;4.00;;;3.80;;
4011;SDS011;2020;48.682;9.024;2023-01-01T06:09:32;3.50;;;3.20;;
4011;SDS011;2020;48.682;9.024;2023-01-01T06:11:57;7.80;;;3.63;;
4011;SDS011;2020;48.682;9.024;2023-01-01T06:14:23;3.63;;;2.87;;
4011;SDS011;2020;48.682;9.024;2023-01-01T06:16:48;4.13;;;3.83;;
4011;SDS011;2020;48.682;9.024;2023-01-01T06:19:13;3.27;;;3.07;;
4011;SDS011;2020;48.682;9.024;2023-01-01T06:21:38;4.27;;;3.97;;
4011;SDS011;2020;48.682;9.024;2023-01-01T06:24:04;3.57;;;3.37;;
4011;SDS011;2020;48.682;9.024;2023-01-01T06:26:30;5.00;;;4.70;;
4011;SDS011;2020;48.682;9.024;2023-01-01T06:28:57;4.70;;;3.70;;
4011;SDS011;2020;48.682;9.024;2023-01-01T06:31:24;3.50;;;3.30;;
4011;SDS011;2020;48.682;9.024;2023-01-01T06:33:50;3.60;;;3.30;;
4011;SDS011;2020;48.682;9.024;2023-01-01T06:36:16;3.53;;;3.33;;
4011;SDS011;2020;48.682;9.024;2023-01-01T06:38:44;3.67;;;3.47;;
4011;SDS011;2020;48.682;9.024;2023-01-01T06:41:12;3.40;;;3.20;;
4011;SDS011;2020;48.682;9.024;2023-01-01T06:43:39;3.97;;;3.67;;
4011;SDS011;2020;48.682;9.024;2023-01-01T06:46:06;4.10;;;3.80;;
4011;SDS011;2020;48.682;9.024;2023-01-01T06:48:45;2.90;;;2.80;;
4011;SDS011;2020;48.682;9.024;2023-01-01T06:51:31;3.77;;;3.53;;
4011;SDS011;2020;48.682;9.024;2023-01-01T06:53:58;3.13;;;2.93;;
4011;SDS011;2020;48.682;9.024;2023-01-01T06:56:25;3.77;;;3.47;;
4011;SDS011;2020;48.682;9.024;2023-01-01T06:58:51;3.10;;;3.00;;
4011;SDS011;2020;48.682;9.024;2023-01-01T07:01:20;3.73;;;3.43;;
4011;SDS011;2020;48.682;9.024;2023-01-01T07:03:51;3.73;;;3.53;;
4011;SDS011;2020;48.682;9.024;2023-01-01T07:06:21;3.83;;;3.57;;
4011;SDS011;2020;48.682;9.024;2023-01-01T07:08:47;3.67;;;3.47;;
4011;SDS011;2020;48.682;9.024;2023-01-01T07:11:12;3.50;;;3.30;;
4011;SDS011;2020;48.682;9.024;2023-01-01T07:13:38;3.97;;;3.67;;
4011;SDS011;2020;48.682;9.024;2023-01-01T07:16:03;3.73;;;3.53;;
4011;SDS011;2020;48.682;9.024;2023-01-01T07:18:29;3.37;;;3.10;;
4011;SDS011;2020;48.682;9.024;2023-01-01T07:20:55;4.23;;;3.97;;
4011;SDS011;2020;48.682;9.024;2023-01-01T07:23:22;4.40;;;4.00;;
4011;SDS011;2020;48.682;9.024;2023-01-01T07:25:49;3.20;;;3.10;;
4011;SDS011;2020;48.682;9.024;2023-01-01T07:28:15;3.30;;;3.10;;
4011;SDS011;2020;48.682;9.024;2023-01-01T07:30:40;5.40;;;3.03;;
4011;SDS011;2020;48.682;9.024;2023-01-01T07:33:08;3.43;;;2.87;;
4011;SDS011;2020;48.682;9.024;2023-01-01T07:35:35;3.20;;;3.00;;
4011;SDS011;2020;48.682;9.024;2023-01-01T07:38:00;3.27;;;3.07;;
4011;SDS011;2020;48.682;9.024;2023-01-01T07:40:26;3.70;;;2.90;;
4011;SDS011;2020;48.682;9.024;2023-01-01T07:42:51;3.27;;;3.07;;
4011;SDS011;2020;48.682;9.024;2023-01-01T07:45:16;2.50;;;2.40;;
4011;SDS011;2020;48.682;9.024;2023-01-01T07:47:41;3.47;;;3.27;;
4011;SDS011;2020;48.682;9.024;2023-01-01T07:50:09;3.83;;;3.63;;
4011;SDS011;2020;48.682;9.024;2023-01-01T07:52:40;3.20;;;3.00;;
4011;SDS011;2020;48.682;9.024;2023-01-01T07:55:05;3.03;;;2.83;;
4011;SDS011;2020;48.682;9.024;2023-01-01T07:57:32;3.13;;;2.93;;
4011;SDS011;2020;48.682;9.024;2023-01-01T07:59:57;2.97;;;2.50;;
4011;SDS011;2020;48.682;9.024;2023-01-01T08:02:22;3.10;;;2.90;;
4011;SDS011;2020;48.682;9.024;2023-01-01T08:04:47;2.90;;;2.80;;
4011;SDS011;2020;48.682;9.024;2023-01-01T08:07:13;3.30;;;3.20;;
4011;SDS011;2020;48.682;9.024;2023-01-01T08:09:38;2.43;;;2.33;;
4011;SDS011;2020;48.682;9.024;2023-01-01T08:12:03;2.83;;;2.73;;
4011;SDS011;2020;48.682;9.024;2023-01-01T08:14:29;2.90;;;2.70;;
4011;SDS011;2020;48.682;9.024;2023-01-01T08:16:54;4.07;;;3.00;;
4011;SDS011;2020;48.682;9.024;2023-01-01T08:19:19;3.07;;;2.93;;
4011;SDS011;2020;48.682;9.024;2023-01-01T08:21:44;2.90;;;2.77;;
4011;SDS011;2020;48.682;9.024;2023-01-01T08:24:09;4.07;;;3.40;;
4011;SDS011;2020;48.682;9.024;2023-01-01T08:26:35;3.70;;;3.50;;
4011;SDS011;2020;48.682;9.024;2023-01-01T08:29:02;2.73;;;2.63;;
4011;SDS011;2020;48.682;9.024;2023-01-01T08:31:31;3.80;;;3.50;;
4011;SDS011;2020;48.682;9.024;2023-01-01T08:33:57;3.80;;;3.50;;
4011;SDS011;2020;48.682;9.024;2023-01-01T08:36:22;3.90;;;3.60;;
4011;SDS011;2020;48.682;9.024;2023-01-01T08:38:48;3.67;;;3.37;;
4011;SDS011;2020;48.682;9.024;2023-01-01T08:41:14;3.30;;;3.00;;
4011;SDS011;2020;48.682;9.024;2023-01-01T08:43:39;3.03;;;2.93;;
4011;SDS011;2020;48.682;9.024;2023-01-01T08:46:04;21.10;;;3.90;;
4011;SDS011;2020;48.682;9.024;2023-01-01T08:48:29;3.70;;;3.30;;
4011;SDS011;2020;48.682;9.024;2023-01-01T08:50:55;3.07;;;2.97;;
4011;SDS011;2020;48.682;9.024;2023-01-01T08:53:24;5.00;;;2.97;;
4011;SDS011;2020;48.682;9.024;2023-01-01T08:56:00;2.97;;;2.80;;
4011;SDS011;2020;48.682;9.024;2023-01-01T08:58:28;3.10;;;2.93;;
4011;SDS011;2020;48.682;9.024;2023-01-01T09:00:54;3.00;;;2.80;;
4011;SDS011;2020;48.682;9.024;2023-01-01T09:03:19;2.77;;;2.67;;
4011;SDS011;2020;48.682;9.024;2023-01-01T09:05:45;3.50;;;2.80;;
4011;SDS011;2020;48.682;9.024;2023-01-01T09:08:13;2.97;;;2.87;;
4011;SDS011;2020;48.682;9.024;2023-01-01T09:10:40;2.93;;;2.83;;
4011;SDS011;2020;48.682;9.024;2023-01-01T09:13:07;3.13;;;2.93;;
4011;SDS011;2020;48.682;9.024;2023-01-01T09:15:34;3.37;;;3.27;;
4011;SDS011;2020;48.682;9.024;2023-01-01T09:17:59;2.97;;;2.80;;
4011;SDS011;2020;48.682;9.024;2023-01-01T09:20:24;3.17;;;2.97;;
4011;SDS011;2020;48.682;9.024;2023-01-01T09:22:49;5.80;;;3.53;;
4011;SDS011;2020;48.682;9.024;2023-01-01T09:25:15;3.40;;;3.27;;
4011;SDS011;2020;48.682;9.024;2023-01-01T09:27:40;3.30;;;3.10;;
4011;SDS011;2020;48.682;9.024;2023-01-01T09:30:06;4.03;;;3.83;;
4011;SDS011;2020;48.682;9.024;2023-01-01T09:32:32;2.60;;;2.50;;
4011;SDS011;2020;48.682;9.024;2023-01-01T09:34:57;3.20;;;2.90;;
4011;SDS011;2020;48.682;9.024;2023-01-01T09:37:24;3.27;;;3.10;;
4011;SDS011;2020;48.682;9.024;2023-01-01T09:39:49;3.40;;;3.20;;
4011;SDS011;2020;48.682;9.024;2023-01-01T09:42:38;3.33;;;3.13;;
4011;SDS011;2020;48.682;9.024;2023-01-01T09:47:51;2.90;;;2.80;;
4011;SDS011;2020;48.682;9.024;2023-01-01T09:50:21;5.23;;;3.60;;
4011;SDS011;2020;48.682;9.024;2023-01-01T09:53:00;4.43;;;3.27;;
4011;SDS011;2020;48.682;9.024;2023-01-01T09:58:20;4.00;;;3.57;;
4011;SDS011;2020;48.682;9.024;2023-01-01T10:00:51;4.00;;;3.60;;
4011;SDS011;2020;48.682;9.024;2023-01-01T10:03:34;3.43;;;3.23;;
4011;SDS011;2020;48.682;9.024;2023-01-01T10:06:49;3.73;;;3.50;;
4011;SDS011;2020;48.682;9.024;2023-01-01T10:14:43;3.30;;;3.10;;
4011;SDS011;2020;48.682;9.024;2023-01-01T10:17:14;3.20;;;3.07;;
4011;SDS011;2020;48.682;9.024;2023-01-01T10:19:56;3.27;;;3.07;;
4011;SDS011;2020;48.682;9.024;2023-01-01T10:22:26;3.67;;;3.33;;
4011;SDS011;2020;48.682;9.024;2023-01-01T10:27:35;3.37;;;3.17;;
4011;SDS011;2020;48.682;9.024;2023-01-01T10:30:08;3.67;;;3.47;;
4011;SDS011;2020;48.682;9.024;2023-01-01T10:32:39;6.53;;;3.53;;
4011;SDS011;2020;48.682;9.024;2023-01-01T10:35:11;3.53;;;3.33;;
4011;SDS011;2020;48.682;9.024;2023-01-01T10:37:38;3.50;;;3.20;;
4011;SDS011;2020;48.682;9.024;2023-01-01T10:40:05;4.43;;;3.03;;
4011;SDS011;2020;48.682;9.024;2023-01-01T10:42:38;3.23;;;3.03;;
4011;SDS011;2020;48.682;9.024;2023-01-01T10:45:04;3.27;;;3.17;;
4011;SDS011;2020;48.682;9.024;2023-01-01T10:47:29;3.30;;;3.00;;
4011;SDS011;2020;48.682;9.024;2023-01-01T10:49:59;4.10;;;3.90;;
4011;SDS011;2020;48.682;9.024;2023-01-01T10:52:33;3.43;;;3.30;;
4011;SDS011;2020;48.682;9.024;2023-01-01T10:55:02;5.83;;;4.17;;
4011;SDS011;2020;48.682;9.024;2023-01-01T10:57:30;3.07;;;2.97;;
4011;SDS011;2020;48.682;9.024;2023-01-01T11:02:34;2.57;;;2.47;;
4011;SDS011;2020;48.682;9.024;2023-01-01T11:05:11;2.90;;;2.70;;
4011;SDS011;2020;48.682;9.024;2023-01-01T11:07:44;5.60;;;2.47;;
4011;SDS011;2020;48.682;9.024;2023-01-01T11:10:14;3.67;;;2.60;;
4011;SDS011;2020;48.682;9.024;2023-01-01T11:12:42;3.20;;;2.77;;
4011;SDS011;2020;48.682;9.024;2023-01-01T11:15:18;2.90;;;2.80;;
4011;SDS011;2020;48.682;9.024;2023-01-01T11:17:46;3.43;;;3.13;;
4011;SDS011;2020;48.682;9.024;2023-01-01T11:20:15;10.37;;;3.37;;
4011;SDS011;2020;48.682;9.024;2023-01-01T11:22:44;5.13;;;3.10;;
4011;SDS011;2020;48.682;9.024;2023-01-01T11:25:23;2.90;;;2.70;;
4011;SDS011;2020;48.682;9.024;2023-01-01T11:27:51;3.90;;;2.70;;
4011;SDS011;2020;48.682;9.024;2023-01-01T11:30:27;3.57;;;2.50;;
4011;SDS011;2020;48.682;9.024;2023-01-01T11:32:54;2.70;;;2.50;;
4011;SDS011;2020;48.682;9.024;2023-01-01T11:35:26;5.33;;;2.57;;
4011;SDS011;2020;48.682;9.024;2023-01-01T11:37:53;2.60;;;2.50;;
4011;SDS011;2020;48.682;9.024;2023-01-01T11:40:26;3.50;;;2.73;;
4011;SDS011;2020;48.682;9.024;2023-01-01T11:42:57;4.20;;;2.13;;
4011;SDS011;2020;48.682;9.024;2023-01-01T11:45:32;5.90;;;3.40;;
4011;SDS011;2020;48.682;9.024;2023-01-01T11:48:02;3.43;;;2.73;;
4011;SDS011;2020;48.682;9.024;2023-01-01T11:50:37;3.07;;;2.17;;
4011;SDS011;2020;48.682;9.024;2023-01-01T11:58:33;2.67;;;2.43;;
4011;SDS011;2020;48.682;9.024;2023-01-01T12:01:13;8.80;;;2.20;;
4011;SDS011;2020;48.682;9.024;2023-01-01T12:03:55;4.20;;;2.70;;
4011;SDS011;2020;48.682;9.024;2023-01-01T12:11:43;3.40;;;2.10;;
4011;SDS011;2020;48.682;9.024;2023-01-01T12:17:32;2.43;;;2.23;;
4011;SDS011;2020;48.682;9.024;2023-01-01T12:22:48;2.90;;;2.67;;
4011;SDS011;2020;48.682;9.024;2023-01-01T12:25:15;10.40;;;2.87;;
4011;SDS011;2020;48.682;9.024;2023-01-01T12:44:35;2.90;;;2.63;;
4011;SDS011;2020;48.682;9.024;2023-01-01T12:47:31;3.33;;;3.03;;
4011;SDS011;2020;48.682;9.024;2023-01-01T12:50:06;2.47;;;2.27;;
4011;SDS011;2020;48.682;9.024;2023-01-01T12:53:24;2.23;;;2.13;;
4011;SDS011;2020;48.682;9.024;2023-01-01T12:55:45;2.50;;;2.40;;
4011;SDS011;2020;48.682;9.024;2023-01-01T13:00:57;2.97;;;2.70;;
4011;SDS011;2020;48.682;9.024;2023-01-01T13:03:29;2.77;;;2.57;;
4011;SDS011;2020;48.682;9.024;2023-01-01T13:06:00;2.83;;;2.40;;
4011;SDS011;2020;48.682;9.024;2023-01-01T13:08:27;4.83;;;2.60;;
4011;SDS011;2020;48.682;9.024;2023-01-01T13:10:53;2.90;;;2.77;;
4011;SDS011;2020;48.682;9.024;2023-01-01T13:13:22;3.43;;;2.30;;
4011;SDS011;2020;48.682;9.024;2023-01-01T13:15:54;2.40;;;2.20;;
4011;SDS011;2020;48.682;9.024;2023-01-01T13:21:18;2.73;;;2.37;;
4011;SDS011;2020;48.682;9.024;2023-01-01T13:23:46;2.30;;;2.20;;
4011;SDS011;2020;48.682;9.024;2023-01-01T13:28:41;5.23;;;2.77;;
4011;SDS011;2020;48.682;9.024;2023-01-01T13:31:06;4.00;;;2.20;;
4011;SDS011;2020;48.682;9.024;2023-01-01T13:33:31;3.60;;;2.20;;
4011;SDS011;2020;48.682;9.024;2023-01-01T13:43:50;7.47;;;1.93;;
4011;SDS011;2020;48.682;9.024;2023-01-01T13:50:00;3.33;;;1.70;;
4011;SDS011;2020;48.682;9.024;2023-01-01T13:55:14;2.43;;;2.10;;
4011;SDS011;2020;48.682;9.024;2023-01-01T14:03:50;2.03;;;1.93;;
4011;SDS011;2020;48.682;9.024;2023-01-01T14:06:22;3.50;;;3.13;;
4011;SDS011;2020;48.682;9.024;2023-01-01T14:09:09;3.33;;;1.80;;
4011;SDS011;2020;48.682;9.024;2023-01-01T14:11:38;4.20;;;1.97;;
4011;SDS011;2020;48.682;9.024;2023-01-01T14:14:23;2.40;;;2.20;;
4011;SDS011;2020;48.682;9.024;2023-01-01T14:16:50;2.60;;;2.13;;
4011;SDS011;2020;48.682;9.024;2023-01-01T14:19:16;2.17;;;2.07;;
4011;SDS011;2020;48.682;9.024;2023-01-01T14:21:42;2.30;;;2.20;;
4011;SDS011;2020;48.682;9.024;2023-01-01T14:24:09;3.60;;;1.73;;
4011;SDS011;2020;48.682;9.024;2023-01-01T14:26:40;3.93;;;2.57;;
4011;SDS011;2020;48.682;9.024;2023-01-01T14:29:06;3.47;;;2.10;;
4011;SDS011;2020;48.682;9.024;2023-01-01T14:31:34;3.90;;;2.07;;
4011;SDS011;2020;48.682;9.024;2023-01-01T14:34:14;3.67;;;2.10;;
4011;SDS011;2020;48.682;9.024;2023-01-01T14:36:50;3.47;;;2.40;;
4011;SDS011;2020;48.682;9.024;2023-01-01T14:39:24;3.67;;;2.13;;
4011;SDS011;2020;48.682;9.024;2023-01-01T14:41:51;3.07;;;2.07;;
4011;SDS011;2020;48.682;9.024;2023-01-01T14:44:20;8.10;;;2.93;;
4011;SDS011;2020;48.682;9.024;2023-01-01T14:46:50;3.90;;;2.33;;
4011;SDS011;2020;48.682;9.024;2023-01-01T14:49:25;5.50;;;2.93;;
4011;SDS011;2020;48.682;9.024;2023-01-01T14:51:56;5.27;;;3.13;;
4011;SDS011;2020;48.682;9.024;2023-01-01T14:54:29;4.17;;;2.60;;
4011;SDS011;2020;48.682;9.024;2023-01-01T14:56:57;3.17;;;2.90;;
4011;SDS011;2020;48.682;9.024;2023-01-01T14:59:27;3.10;;;2.70;;
4011;SDS011;2020;48.682;9.024;2023-01-01T15:04:23;4.13;;;2.40;;
4011;SDS011;2020;48.682;9.024;2023-01-01T15:06:55;3.20;;;2.13;;
4011;SDS011;2020;48.682;9.024;2023-01-01T15:09:21;2.60;;;2.27;;
4011;SDS011;2020;48.682;9.024;2023-01-01T15:11:49;2.20;;;2.10;;
4011;SDS011;2020;48.682;9.024;2023-01-01T15:17:16;3.10;;;2.90;;
4011;SDS011;2020;48.682;9.024;2023-01-01T15:19:44;4.40;;;3.47;;
4011;SDS011;2020;48.682;9.024;2023-01-01T15:22:16;3.53;;;2.97;;
4011;SDS011;2020;48.682;9.024;2023-01-01T15:24:53;3.00;;;2.80;;
4011;SDS011;2020;48.682;9.024;2023-01-01T15:27:40;2.50;;;2.40;;
4011;SDS011;2020;48.682;9.024;2023-01-01T15:30:04;3.23;;;2.93;;
4011;SDS011;2020;48.682;9.024;2023-01-01T15:32:32;8.50;;;3.33;;
4011;SDS011;2020;48.682;9.024;2023-01-01T15:35:00;3.80;;;3.27;;
4011;SDS011;2020;48.682;9.024;2023-01-01T15:37:32;3.20;;;2.57;;
4011;SDS011;2020;48.682;9.024;2023-01-01T15:42:37;3.17;;;2.97;;
4011;SDS011;2020;48.682;9.024;2023-01-01T15:45:13;4.37;;;3.17;;
4011;SDS011;2020;48.682;9.024;2023-01-01T15:47:38;3.97;;;3.67;;
4011;SDS011;2020;48.682;9.024;2023-01-01T15:50:08;3.90;;;3.60;;
4011;SDS011;2020;48.682;9.024;2023-01-01T15:52:35;4.47;;;4.00;;
4011;SDS011;2020;48.682;9.024;2023-01-01T15:55:02;4.57;;;4.27;;
4011;SDS011;2020;48.682;9.024;2023-01-01T15:57:27;5.33;;;4.80;;
4011;SDS011;2020;48.682;9.024;2023-01-01T15:59:53;4.07;;;3.40;;
4011;SDS011;2020;48.682;9.024;2023-01-01T16:02:20;3.73;;;3.07;;
4011;SDS011;2020;48.682;9.024;2023-01-01T16:04:52;4.83;;;4.40;;
4011;SDS011;2020;48.682;9.024;2023-01-01T16:07:21;6.43;;;3.30;;
4011;SDS011;2020;48.682;9.024;2023-01-01T16:09:49;5.23;;;4.03;;
4011;SDS011;2020;48.682;9.024;2023-01-01T16:12:15;6.87;;;4.03;;
4011;SDS011;2020;48.682;9.024;2023-01-01T16:14:40;10.90;;;5.03;;
4011;SDS011;2020;48.682;9.024;2023-01-01T16:17:08;5.10;;;3.80;;
4011;SDS011;2020;48.682;9.024;2023-01-01T16:19:38;7.83;;;4.67;;
4011;SDS011;2020;48.682;9.024;2023-01-01T16:22:04;9.10;;;5.30;;
4011;SDS011;2020;48.682;9.024;2023-01-01T16:24:29;4.87;;;4.17;;
4011;SDS011;2020;48.682;9.024;2023-01-01T16:26:57;3.80;;;3.70;;
4011;SDS011;2020;48.682;9.024;2023-01-01T16:29:22;4.40;;;3.80;;
4011;SDS011;2020;48.682;9.024;2023-01-01T16:31:49;4.30;;;3.90;;
4011;SDS011;2020;48.682;9.024;2023-01-01T16:34:15;5.40;;;4.90;;
4011;SDS011;2020;48.682;9.024;2023-01-01T16:36:40;6.30;;;5.70;;
4011;SDS011;2020;48.682;9.024;2023-01-01T16:39:06;5.27;;;4.83;;
4011;SDS011;2020;48.682;9.024;2023-01-01T16:41:31;6.07;;;5.47;;
4011;SDS011;2020;48.682;9.024;2023-01-01T16:43:57;4.93;;;4.63;;
4011;SDS011;2020;48.682;9.024;2023-01-01T16:46:22;6.23;;;5.10;;
4011;SDS011;2020;48.682;9.024;2023-01-01T16:48:48;5.23;;;4.83;;
4011;SDS011;2020;48.682;9.024;2023-01-01T16:51:20;4.70;;;3.97;;
4011;SDS011;2020;48.682;9.024;2023-01-01T16:53:48;4.50;;;4.10;;
4011;SDS011;2020;48.682;9.024;2023-01-01T16:56:13;3.60;;;3.40;;
4011;SDS011;2020;48.682;9.024;2023-01-01T16:58:39;4.67;;;3.80;;
4011;SDS011;2020;48.682;9.024;2023-01-01T17:01:05;4.20;;;4.00;;
4011;SDS011;2020;48.682;9.024;2023-01-01T17:03:30;3.97;;;3.57;;
4011;SDS011;2020;48.682;9.024;2023-01-01T17:05:55;3.67;;;3.00;;
4011;SDS011;2020;48.682;9.024;2023-01-01T17:08:21;4.93;;;4.43;;
4011;SDS011;2020;48.682;9.024;2023-01-01T17:10:47;5.80;;;3.27;;
4011;SDS011;2020;48.682;9.024;2023-01-01T17:13:12;6.93;;;3.50;;
4011;SDS011;2020;48.682;9.024;2023-01-01T17:15:37;5.07;;;3.37;;